Time;durP1;ratioP1;P1;durP2;ratioP2;P2;SDS_P1;SDS_P2;PMS_P1;PMS_P2;Temp;Humidity;BMP_temperature;BMP_pressure;BME280_temperature;BME280_humidity;BME280_pressure;Samples;Min_cycle;Max_cycle;Signal;HPM_P1;HPM_P2
2023/03/06 00:00:32;;;;;;;2.63;2.03;;;4.70;99.90;;;;;;4987189;28;20370;-78
2023/03/06 00:02:59;;;;;;;2.42;1.50;;;4.70;99.90;;;;;;4991087;28;20076;-77
2023/03/06 00:05:26;;;;;;;2.53;1.85;;;4.70;99.90;;;;;;4990557;28;20052;-78
2023/03/06 00:07:53;;;;;;;2.53;1.83;;;4.60;99.90;;;;;;5003032;28;20049;-78
2023/03/06 00:10:23;;;;;;;2.92;2.47;;;4.60;99.90;;;;;;5002128;28;20519;-77
2023/03/06 00:13:13;;;;;;;2.88;2.53;;;4.50;99.90;;;;;;4989760;28;20128;-78
2023/03/06 00:15:40;;;;;;;3.38;2.65;;;4.40;99.90;;;;;;4999929;28;20151;-77
2023/03/06 00:18:07;;;;;;;3.55;2.33;;;4.30;99.90;;;;;;4985694;28;20140;-77
2023/03/06 00:20:33;;;;;;;2.38;1.90;;;4.30;99.90;;;;;;5002466;28;20471;-77
2023/03/06 00:23:00;;;;;;;2.55;1.85;;;4.30;99.90;;;;;;4994129;28;20046;-77
2023/03/06 00:25:27;;;;;;;1.90;1.58;;;4.20;99.90;;;;;;5009684;28;20377;-77
2023/03/06 00:27:54;;;;;;;2.83;2.00;;;4.20;99.90;;;;;;4984158;28;20464;-78
2023/03/06 00:30:22;;;;;;;2.28;1.52;;;4.20;99.90;;;;;;5002444;28;20061;-77
2023/03/06 00:32:49;;;;;;;3.25;1.98;;;4.10;99.90;;;;;;4989701;28;20080;-77
2023/03/06 00:35:16;;;;;;;2.95;2.25;;;4.10;99.90;;;;;;4982478;28;20100;-77
2023/03/06 00:37:43;;;;;;;3.38;2.30;;;4.10;99.90;;;;;;5002644;28;20049;-78
2023/03/06 00:40:13;;;;;;;2.25;1.90;;;4.10;99.90;;;;;;4982437;28;20085;-77
2023/03/06 00:42:40;;;;;;;2.60;1.85;;;4.10;99.90;;;;;;4987194;28;20060;-78
2023/03/06 00:45:07;;;;;;;2.60;1.70;;;4.10;99.90;;;;;;4967780;28;20054;-77
2023/03/06 00:47:34;;;;;;;1.92;1.55;;;4.10;99.90;;;;;;4985261;28;20068;-77
2023/03/06 00:50:01;;;;;;;1.98;1.40;;;4.20;99.90;;;;;;5000794;28;20049;-78
2023/03/06 00:52:28;;;;;;;2.63;1.95;;;4.20;99.90;;;;;;4993194;28;20045;-78
2023/03/06 00:54:55;;;;;;;2.30;1.60;;;4.20;99.90;;;;;;5019147;28;20049;-78
2023/03/06 00:57:21;;;;;;;1.80;1.30;;;4.20;99.90;;;;;;5019528;28;20668;-77
2023/03/06 00:59:48;;;;;;;2.17;1.65;;;4.20;99.90;;;;;;4994547;28;20360;-77
2023/03/06 01:02:15;;;;;;;2.22;1.95;;;4.20;99.90;;;;;;5002435;28;20061;-78
2023/03/06 01:04:42;;;;;;;1.95;1.60;;;4.20;99.90;;;;;;4302701;28;10000420;-78
2023/03/06 01:07:09;;;;;;;2.22;1.52;;;4.20;99.90;;;;;;5002326;28;20230;-77
2023/03/06 01:09:36;;;;;;;1.77;1.33;;;4.20;99.90;;;;;;5004115;28;20053;-77
2023/03/06 01:12:03;;;;;;;1.85;1.58;;;4.30;99.90;;;;;;5004337;28;20425;-77
2023/03/06 01:14:30;;;;;;;1.50;1.30;;;4.30;99.90;;;;;;5039388;28;20083;-78
2023/03/06 01:16:57;;;;;;;2.30;1.63;;;4.30;99.90;;;;;;5007972;28;20052;-78
2023/03/06 01:19:24;;;;;;;2.40;1.65;;;4.30;99.90;;;;;;5006511;28;20111;-77
2023/03/06 01:21:51;;;;;;;2.10;1.67;;;4.30;99.90;;;;;;5023505;28;20061;-78
2023/03/06 01:24:17;;;;;;;3.28;1.60;;;4.20;99.90;;;;;;5000519;28;20128;-77
2023/03/06 01:26:44;;;;;;;2.22;1.65;;;4.30;99.90;;;;;;4987704;28;20140;-78
2023/03/06 01:29:11;;;;;;;2.00;1.65;;;4.30;99.90;;;;;;4977568;28;20515;-78
2023/03/06 01:31:38;;;;;;;3.08;2.22;;;4.30;99.90;;;;;;5020681;28;20398;-78
2023/03/06 01:34:05;;;;;;;2.03;1.63;;;4.30;99.90;;;;;;5016060;28;20049;-77
2023/03/06 01:36:31;;;;;;;2.33;1.73;;;4.30;99.90;;;;;;4994276;28;20053;-78
2023/03/06 01:38:58;;;;;;;2.00;1.70;;;4.30;99.90;;;;;;5003262;28;20050;-78
2023/03/06 01:41:25;;;;;;;2.33;1.50;;;4.20;99.90;;;;;;5027497;28;20131;-78
2023/03/06 01:43:52;;;;;;;2.33;1.73;;;4.20;99.90;;;;;;5040337;28;20523;-78
2023/03/06 01:46:27;;;;;;;2.80;2.20;;;4.20;99.90;;;;;;5027792;28;20523;-78
2023/03/06 01:49:06;;;;;;;2.50;1.67;;;4.20;99.90;;;;;;5019131;28;20096;-78
2023/03/06 01:51:57;;;;;;;2.72;1.80;;;4.10;99.90;;;;;;4978325;28;20048;-78
2023/03/06 01:54:28;;;;;;;2.40;1.70;;;4.10;99.90;;;;;;5017652;28;20576;-78
2023/03/06 01:56:58;;;;;;;2.67;1.70;;;4.10;99.90;;;;;;5041191;28;20183;-78
2023/03/06 01:59:25;;;;;;;3.55;2.53;;;4.10;99.90;;;;;;5006644;28;20083;-78
2023/03/06 02:01:52;;;;;;;2.05;1.50;;;4.10;99.90;;;;;;5021715;28;20806;-78
2023/03/06 02:04:19;;;;;;;2.47;1.83;;;4.00;99.90;;;;;;5001156;28;20211;-78
2023/03/06 02:06:46;;;;;;;2.88;1.77;;;4.00;99.90;;;;;;4996628;28;20049;-78
2023/03/06 02:09:13;;;;;;;2.63;1.67;;;3.90;99.90;;;;;;5001727;28;20080;-77
2023/03/06 02:11:42;;;;;;;3.10;1.85;;;3.80;99.90;;;;;;5005935;28;20193;-77
2023/03/06 02:14:11;;;;;;;2.65;1.80;;;3.70;99.90;;;;;;5008822;28;20045;-77
2023/03/06 02:16:38;;;;;;;1.65;1.40;;;3.70;99.90;;;;;;4982253;28;20132;-77
2023/03/06 02:19:06;;;;;;;3.00;2.00;;;3.60;99.90;;;;;;4954164;28;20052;-77
2023/03/06 02:21:34;;;;;;;2.83;2.22;;;3.70;99.90;;;;;;4976136;28;20049;-77
2023/03/06 02:24:25;;;;;;;2.45;1.70;;;3.60;99.90;;;;;;4989486;28;20088;-78
2023/03/06 02:26:52;;;;;;;3.38;1.85;;;3.60;99.90;;;;;;4994973;28;20408;-78
2023/03/06 02:29:21;;;;;;;2.60;1.90;;;3.50;99.90;;;;;;4981868;28;20081;-77
2023/03/06 02:31:48;;;;;;;2.42;1.80;;;3.50;99.90;;;;;;4656070;28;10000373;-77
2023/03/06 02:34:15;;;;;;;2.85;2.00;;;3.40;99.90;;;;;;4985772;28;20049;-77
2023/03/06 02:36:44;;;;;;;3.40;2.40;;;3.30;99.90;;;;;;5002187;28;20037;-77
2023/03/06 02:39:11;;;;;;;2.20;2.00;;;3.30;99.90;;;;;;4990654;28;20057;-77
2023/03/06 02:41:38;;;;;;;2.42;1.88;;;3.20;99.90;;;;;;4997699;28;20086;-77
2023/03/06 02:44:05;;;;;;;2.40;2.13;;;3.20;99.90;;;;;;5025633;28;20158;-77
2023/03/06 02:46:32;;;;;;;3.47;2.42;;;3.10;99.90;;;;;;5026694;28;20045;-77
2023/03/06 02:48:59;;;;;;;3.65;2.50;;;3.10;99.90;;;;;;5020439;28;20049;-77
2023/03/06 02:51:26;;;;;;;3.72;2.15;;;3.00;99.90;;;;;;5010977;28;20055;-77
2023/03/06 02:53:53;;;;;;;3.10;2.20;;;3.00;99.90;;;;;;5033801;28;20392;-77
2023/03/06 02:56:19;;;;;;;3.05;2.22;;;2.90;99.90;;;;;;5023793;28;20532;-77
2023/03/06 02:58:46;;;;;;;3.58;1.98;;;2.80;99.90;;;;;;5024095;28;20061;-77
2023/03/06 03:01:13;;;;;;;2.88;2.13;;;2.70;99.90;;;;;;5027442;28;20057;-77
2023/03/06 03:03:40;;;;;;;3.08;2.10;;;2.60;99.90;;;;;;5002160;28;20045;-77
2023/03/06 03:06:06;;;;;;;2.50;1.95;;;2.50;99.90;;;;;;5004943;28;20072;-78
2023/03/06 03:08:33;;;;;;;2.60;1.95;;;2.50;99.90;;;;;;5005559;28;20136;-77
2023/03/06 03:11:00;;;;;;;2.97;2.20;;;2.50;99.90;;;;;;5006634;28;20446;-77
2023/03/06 03:13:27;;;;;;;3.00;2.25;;;2.50;99.90;;;;;;5020623;28;20089;-77
2023/03/06 03:15:58;;;;;;;3.58;2.83;;;2.50;99.90;;;;;;4990087;28;20096;-77
2023/03/06 03:18:26;;;;;;;3.80;2.80;;;2.40;99.90;;;;;;5011076;28;20041;-77
2023/03/06 03:20:52;;;;;;;3.53;2.70;;;2.40;99.90;;;;;;4991948;28;20096;-77
2023/03/06 03:23:19;;;;;;;3.47;2.45;;;2.30;99.90;;;;;;4985983;28;20124;-78
2023/03/06 03:25:46;;;;;;;4.75;2.90;;;2.30;99.90;;;;;;4983313;28;20089;-78
2023/03/06 03:28:13;;;;;;;3.42;2.80;;;2.20;99.90;;;;;;4995809;28;20049;-77
2023/03/06 03:30:40;;;;;;;3.08;2.78;;;2.20;99.90;;;;;;5010856;28;20061;-77
2023/03/06 03:33:07;;;;;;;3.17;2.42;;;2.10;99.90;;;;;;5013229;28;20571;-78
2023/03/06 03:35:33;;;;;;;3.60;2.88;;;2.10;99.90;;;;;;4981471;28;20060;-77
2023/03/06 03:38:00;;;;;;;3.75;2.90;;;2.10;99.90;;;;;;4994156;28;20064;-77
2023/03/06 03:40:27;;;;;;;3.55;2.80;;;2.00;99.90;;;;;;5012405;28;20071;-77
2023/03/06 03:42:55;;;;;;;4.25;3.17;;;2.00;99.90;;;;;;4992507;28;20065;-78
2023/03/06 03:45:23;;;;;;;3.42;2.88;;;2.00;99.90;;;;;;5004653;28;20156;-77
2023/03/06 03:47:49;;;;;;;3.75;3.17;;;1.90;99.90;;;;;;4997873;28;20050;-77
2023/03/06 03:50:17;;;;;;;3.70;2.75;;;1.90;99.90;;;;;;4994612;28;20056;-77
2023/03/06 03:52:44;;;;;;;3.70;3.15;;;1.90;99.90;;;;;;5012403;28;20638;-77
2023/03/06 03:55:10;;;;;;;4.53;3.05;;;1.80;99.90;;;;;;5017669;28;20084;-78
2023/03/06 03:57:38;;;;;;;3.80;3.28;;;1.80;99.90;;;;;;5013467;28;20081;-77
2023/03/06 04:00:06;;;;;;;3.60;3.05;;;1.80;99.90;;;;;;5013690;28;20060;-77
2023/03/06 04:02:33;;;;;;;3.97;3.47;;;1.70;99.90;;;;;;5012441;28;20061;-77
2023/03/06 04:05:00;;;;;;;3.83;2.92;;;1.70;99.90;;;;;;5011370;28;20077;-77
2023/03/06 04:07:27;;;;;;;3.20;2.60;;;1.60;99.90;;;;;;5013026;28;20141;-78
2023/03/06 04:09:54;;;;;;;3.95;2.97;;;1.60;99.90;;;;;;5013769;28;20049;-77
2023/03/06 04:12:21;;;;;;;3.63;2.92;;;1.60;99.90;;;;;;5012122;28;20526;-77
2023/03/06 04:14:47;;;;;;;4.45;3.08;;;1.50;99.90;;;;;;5025689;28;20049;-78
2023/03/06 04:17:14;;;;;;;3.72;3.00;;;1.40;99.90;;;;;;5012875;28;20048;-77
2023/03/06 04:19:41;;;;;;;4.63;3.38;;;1.40;99.90;;;;;;5028528;28;20128;-77
2023/03/06 04:22:07;;;;;;;4.95;3.08;;;1.40;99.90;;;;;;5012454;28;20049;-77
2023/03/06 04:24:34;;;;;;;4.05;3.15;;;1.40;99.90;;;;;;5026939;28;20084;-77
2023/03/06 04:27:01;;;;;;;3.72;2.90;;;1.40;99.90;;;;;;5032457;28;20056;-77
2023/03/06 04:29:28;;;;;;;4.32;3.20;;;1.40;99.90;;;;;;5025828;28;20125;-77
2023/03/06 04:31:54;;;;;;;4.38;3.45;;;1.30;99.90;;;;;;5027706;28;20076;-77
2023/03/06 04:34:21;;;;;;;4.05;3.15;;;1.30;99.90;;;;;;5011802;28;20121;-77
2023/03/06 04:36:48;;;;;;;4.38;3.60;;;1.30;99.90;;;;;;5009003;28;20045;-77
2023/03/06 04:39:14;;;;;;;4.45;3.53;;;1.20;99.90;;;;;;4989578;28;20046;-77
2023/03/06 04:41:41;;;;;;;5.50;3.72;;;1.30;99.90;;;;;;4985216;28;20136;-77
2023/03/06 04:44:08;;;;;;;4.28;3.08;;;1.20;99.90;;;;;;5019116;28;20052;-77
2023/03/06 04:46:35;;;;;;;4.53;3.30;;;1.20;99.90;;;;;;4980572;28;20052;-78
2023/03/06 04:49:02;;;;;;;3.65;3.08;;;1.20;99.90;;;;;;5003466;28;20076;-76
2023/03/06 04:51:30;;;;;;;4.75;3.28;;;1.10;99.90;;;;;;4986097;28;20217;-77
2023/03/06 04:53:56;;;;;;;4.78;3.53;;;1.10;99.90;;;;;;4985993;28;20148;-77
2023/03/06 04:56:23;;;;;;;4.40;3.65;;;1.10;99.90;;;;;;4995048;28;20544;-77
2023/03/06 04:58:50;;;;;;;4.35;3.30;;;1.10;99.90;;;;;;5005340;28;20050;-77
2023/03/06 05:01:17;;;;;;;5.03;3.30;;;1.10;99.90;;;;;;5005881;28;20497;-77
2023/03/06 05:03:44;;;;;;;4.72;3.40;;;1.10;99.90;;;;;;5011745;28;20060;-77
2023/03/06 05:06:11;;;;;;;4.00;3.13;;;1.10;99.90;;;;;;4996891;28;20222;-77
2023/03/06 05:08:37;;;;;;;5.15;3.58;;;1.10;99.90;;;;;;4986149;28;20141;-77
2023/03/06 05:11:04;;;;;;;3.92;2.90;;;1.00;99.90;;;;;;4954977;28;20473;-78
2023/03/06 05:13:31;;;;;;;3.92;3.13;;;1.00;99.90;;;;;;4979014;28;20045;-78
2023/03/06 05:16:04;;;;;;;4.25;3.83;;;1.00;99.90;;;;;;5025945;28;20582;-78
2023/03/06 05:18:33;;;;;;;4.32;3.53;;;1.00;99.90;;;;;;5011529;28;20112;-77
2023/03/06 05:21:00;;;;;;;5.60;3.80;;;0.90;99.90;;;;;;4986043;28;20065;-79
2023/03/06 05:23:28;;;;;;;4.75;3.25;;;0.90;99.90;;;;;;5006715;28;20832;-77
2023/03/06 05:25:55;;;;;;;4.57;3.30;;;0.80;99.90;;;;;;4987975;28;20129;-77
2023/03/06 05:28:22;;;;;;;4.28;2.90;;;0.80;99.90;;;;;;5004945;28;20041;-77
2023/03/06 05:30:49;;;;;;;4.72;3.20;;;0.80;99.90;;;;;;4989765;28;20046;-76
2023/03/06 05:33:16;;;;;;;4.00;3.05;;;0.80;99.90;;;;;;5008812;28;20615;-77
2023/03/06 05:35:46;;;;;;;4.75;3.63;;;0.70;99.90;;;;;;5009532;28;20708;-77
2023/03/06 05:38:16;;;;;;;5.25;3.20;;;0.70;99.90;;;;;;4989761;28;20132;-77
2023/03/06 05:40:43;;;;;;;4.05;2.90;;;0.70;99.90;;;;;;5005828;28;20054;-77
2023/03/06 05:43:10;;;;;;;3.80;2.83;;;0.70;99.90;;;;;;4989819;28;20168;-77
2023/03/06 05:45:38;;;;;;;6.88;3.13;;;0.70;99.90;;;;;;5017989;28;20469;-76
2023/03/06 05:48:05;;;;;;;4.68;3.40;;;0.60;99.90;;;;;;4986375;28;20065;-77
2023/03/06 05:50:32;;;;;;;3.70;2.95;;;0.60;99.90;;;;;;4970375;28;20139;-76
2023/03/06 05:52:59;;;;;;;3.63;2.80;;;0.60;99.90;;;;;;5003174;28;20447;-77
2023/03/06 05:55:25;;;;;;;3.75;2.72;;;0.70;99.90;;;;;;4985037;28;20572;-78
2023/03/06 05:57:53;;;;;;;3.10;2.42;;;0.70;99.90;;;;;;4978912;28;20054;-77
2023/03/06 06:00:21;;;;;;;3.70;2.80;;;0.70;99.90;;;;;;4997284;28;20133;-77
2023/03/06 06:02:48;;;;;;;3.55;2.70;;;0.80;99.90;;;;;;4972468;28;20052;-77
2023/03/06 06:05:15;;;;;;;3.25;2.42;;;0.90;99.90;;;;;;4980155;28;20123;-78
2023/03/06 06:07:42;;;;;;;5.00;3.33;;;1.00;99.90;;;;;;4998540;28;20056;-77
2023/03/06 06:10:10;;;;;;;3.67;2.83;;;1.00;99.90;;;;;;4996396;28;20081;-77
2023/03/06 06:12:37;;;;;;;4.40;3.58;;;1.10;99.90;;;;;;4991760;28;20126;-77
2023/03/06 06:15:05;;;;;;;4.97;3.60;;;1.10;99.90;;;;;;4994428;28;20308;-77
2023/03/06 06:17:32;;;;;;;4.65;3.50;;;1.10;99.90;;;;;;4997263;28;20540;-77
2023/03/06 06:19:59;;;;;;;4.90;3.70;;;1.20;99.90;;;;;;4978230;28;20121;-77
2023/03/06 06:22:25;;;;;;;4.63;3.30;;;1.20;99.90;;;;;;4978066;28;20105;-77
2023/03/06 06:24:52;;;;;;;4.63;3.60;;;1.20;99.90;;;;;;5003527;28;20153;-78
2023/03/06 06:27:19;;;;;;;3.78;3.00;;;1.20;99.90;;;;;;4994008;28;20049;-76
2023/03/06 06:29:49;;;;;;;4.00;3.35;;;1.30;99.90;;;;;;5005387;28;20046;-78
2023/03/06 06:32:17;;;;;;;4.32;2.88;;;1.30;99.90;;;;;;4961265;28;20061;-77
2023/03/06 06:34:44;;;;;;;4.13;3.22;;;1.40;99.90;;;;;;5002888;28;20068;-77
2023/03/06 06:37:10;;;;;;;4.80;3.22;;;1.40;99.90;;;;;;4991916;28;20382;-78
2023/03/06 06:39:37;;;;;;;4.35;3.05;;;1.50;99.90;;;;;;4973129;28;20081;-77
2023/03/06 06:42:04;;;;;;;4.28;3.42;;;1.50;99.90;;;;;;4991268;28;20448;-77
2023/03/06 06:44:51;;;;;;;5.30;3.00;;;1.60;99.90;;;;;;4987678;28;20054;-77
2023/03/06 06:47:18;;;;;;;4.13;3.13;;;1.60;99.90;;;;;;4978989;28;20385;-77
2023/03/06 06:49:52;;;;;;;3.22;2.65;;;1.70;99.90;;;;;;4997385;28;20135;-78
2023/03/06 06:52:19;;;;;;;4.88;3.00;;;1.80;99.90;;;;;;5003036;28;20065;-77
2023/03/06 06:54:46;;;;;;;3.97;3.35;;;1.90;99.90;;;;;;4990829;28;20052;-78
2023/03/06 06:57:13;;;;;;;3.63;2.95;;;1.90;99.90;;;;;;4982594;28;20049;-77
2023/03/06 06:59:39;;;;;;;3.80;3.08;;;2.00;99.90;;;;;;4978684;28;20053;-78
2023/03/06 07:02:07;;;;;;;3.65;2.70;;;2.10;99.90;;;;;;4982032;28;20061;-78
2023/03/06 07:04:33;;;;;;;4.20;3.20;;;2.10;99.90;;;;;;4979488;28;20053;-78
2023/03/06 07:07:00;;;;;;;3.55;2.72;;;2.20;99.90;;;;;;4998080;28;20087;-78
2023/03/06 07:09:29;;;;;;;3.10;2.63;;;2.20;99.90;;;;;;4983647;28;20416;-78
2023/03/06 07:11:56;;;;;;;3.58;2.42;;;2.20;99.90;;;;;;4994893;28;20049;-79
2023/03/06 07:14:23;;;;;;;2.60;2.28;;;2.30;99.90;;;;;;4973630;28;20064;-78
2023/03/06 07:16:50;;;;;;;3.10;2.40;;;2.30;99.90;;;;;;4992774;28;20165;-77
2023/03/06 07:19:17;;;;;;;2.92;2.28;;;2.40;99.90;;;;;;4990435;28;20087;-78
2023/03/06 07:21:44;;;;;;;2.53;1.92;;;2.50;99.90;;;;;;4976208;28;20165;-79
2023/03/06 07:24:10;;;;;;;2.50;2.03;;;2.50;99.90;;;;;;4996835;28;20160;-77
2023/03/06 07:26:37;;;;;;;2.60;2.00;;;2.60;99.90;;;;;;4994512;28;20449;-78
2023/03/06 07:29:04;;;;;;;2.30;1.90;;;2.70;99.90;;;;;;4978521;28;20669;-77
2023/03/06 07:31:31;;;;;;;2.38;2.00;;;2.80;99.90;;;;;;4963515;28;20322;-78
2023/03/06 07:33:58;;;;;;;2.50;1.83;;;2.90;99.90;;;;;;5002312;28;20051;-78
2023/03/06 07:36:25;;;;;;;2.50;1.85;;;2.90;99.90;;;;;;4998869;28;20156;-78
2023/03/06 07:38:52;;;;;;;2.60;1.95;;;3.00;99.90;;;;;;4974834;28;20057;-78
2023/03/06 07:41:18;;;;;;;3.58;2.10;;;3.10;99.90;;;;;;4995865;28;20061;-78
2023/03/06 07:43:48;;;;;;;3.15;2.33;;;3.20;99.90;;;;;;4993584;28;20045;-78
2023/03/06 07:46:15;;;;;;;2.13;1.67;;;3.30;99.90;;;;;;4982570;28;20493;-77
2023/03/06 07:48:42;;;;;;;1.95;1.45;;;3.40;99.90;;;;;;5007937;28;20060;-78
2023/03/06 07:51:14;;;;;;;2.20;1.73;;;3.50;99.90;;;;;;5004808;28;20413;-78
2023/03/06 07:53:41;;;;;;;2.08;1.77;;;3.50;99.90;;;;;;5000727;28;20088;-78
2023/03/06 07:56:08;;;;;;;2.80;2.30;;;3.50;99.90;;;;;;5003594;28;20046;-78
2023/03/06 07:58:39;;;;;;;2.00;1.40;;;3.60;99.90;;;;;;4992284;28;20064;-78
2023/03/06 08:01:11;;;;;;;1.85;1.55;;;3.60;99.90;;;;;;5010138;28;20136;-78
2023/03/06 08:03:38;;;;;;;2.17;1.65;;;3.70;99.90;;;;;;5003915;28;20556;-77
2023/03/06 08:06:09;;;;;;;3.17;2.25;;;3.70;99.90;;;;;;4998994;28;20057;-77
2023/03/06 08:08:38;;;;;;;3.47;2.42;;;3.80;99.90;;;;;;5012779;28;20152;-77
2023/03/06 08:11:06;;;;;;;3.08;2.03;;;3.80;99.90;;;;;;4996366;28;20329;-78
2023/03/06 08:13:32;;;;;;;2.42;1.90;;;3.90;99.90;;;;;;5027781;28;20087;-78
2023/03/06 08:16:00;;;;;;;2.72;2.13;;;3.90;99.90;;;;;;5011914;28;20049;-77
2023/03/06 08:18:27;;;;;;;2.67;1.90;;;3.90;99.90;;;;;;5021235;28;20496;-77
2023/03/06 08:21:07;;;;;;;2.63;1.98;;;4.00;99.90;;;;;;5011245;28;20048;-78
2023/03/06 08:23:34;;;;;;;2.22;1.90;;;4.10;99.90;;;;;;5012090;28;20091;-77
2023/03/06 08:26:03;;;;;;;2.47;2.05;;;4.10;99.90;;;;;;5011683;28;20052;-80
2023/03/06 08:28:30;;;;;;;2.72;1.80;;;4.10;99.90;;;;;;5026436;28;20061;-77
2023/03/06 08:30:57;;;;;;;2.75;2.10;;;4.10;99.90;;;;;;5024153;28;20122;-77
2023/03/06 08:33:24;;;;;;;2.80;2.20;;;4.20;99.90;;;;;;5007400;28;20084;-77
2023/03/06 08:35:51;;;;;;;2.17;1.70;;;4.30;99.90;;;;;;5023741;28;20056;-77
2023/03/06 08:38:18;;;;;;;2.53;2.13;;;4.40;99.90;;;;;;5008270;28;20060;-77
2023/03/06 08:40:45;;;;;;;2.15;1.60;;;4.40;99.90;;;;;;4994955;28;20060;-76
2023/03/06 08:43:12;;;;;;;2.47;1.95;;;4.50;99.90;;;;;;5018030;28;20410;-77
2023/03/06 08:45:40;;;;;;;2.28;1.65;;;4.60;99.90;;;;;;5011842;28;20052;-79
2023/03/06 08:48:06;;;;;;;2.28;1.77;;;4.70;99.90;;;;;;5010949;28;20088;-77
2023/03/06 08:50:33;;;;;;;1.85;1.60;;;4.80;99.90;;;;;;5026042;28;20060;-77
2023/03/06 08:53:00;;;;;;;2.00;1.52;;;4.90;99.90;;;;;;5027755;28;20123;-78
2023/03/06 08:55:27;;;;;;;3.08;2.17;;;4.90;99.90;;;;;;5010644;28;20393;-78
2023/03/06 08:57:54;;;;;;;3.50;2.33;;;5.00;99.90;;;;;;5045568;28;20145;-77
2023/03/06 09:00:20;;;;;;;2.22;1.70;;;5.00;99.90;;;;;;5044848;28;20119;-77
2023/03/06 09:02:47;;;;;;;2.13;1.83;;;5.00;99.90;;;;;;5011379;28;20053;-77
2023/03/06 09:05:14;;;;;;;2.33;1.92;;;5.10;99.90;;;;;;5025541;28;20091;-77
2023/03/06 09:07:41;;;;;;;2.45;2.08;;;5.30;99.90;;;;;;4984466;28;20081;-77
2023/03/06 09:10:12;;;;;;;2.30;1.75;;;5.30;99.90;;;;;;4975272;28;20165;-77
2023/03/06 09:12:39;;;;;;;2.75;2.08;;;5.30;99.90;;;;;;4984965;28;20156;-77
2023/03/06 09:15:16;;;;;;;2.70;2.30;;;5.30;99.90;;;;;;4995137;28;20081;-77
2023/03/06 09:17:43;;;;;;;3.17;2.63;;;5.40;99.90;;;;;;4976727;28;20468;-77
2023/03/06 09:20:10;;;;;;;3.30;2.85;;;5.40;99.90;;;;;;5006471;28;20049;-78
2023/03/06 09:22:37;;;;;;;2.55;2.25;;;5.50;99.90;;;;;;5015924;28;20122;-78
2023/03/06 09:25:05;;;;;;;2.45;1.98;;;5.50;99.90;;;;;;5026626;28;20470;-77
2023/03/06 09:27:31;;;;;;;3.15;2.65;;;5.60;99.90;;;;;;4968499;28;20060;-78
2023/03/06 09:29:58;;;;;;;3.58;2.67;;;5.60;99.90;;;;;;5002981;28;20045;-78
2023/03/06 09:32:25;;;;;;;3.03;2.13;;;5.70;99.90;;;;;;5010533;28;20061;-78
2023/03/06 09:34:52;;;;;;;2.70;2.22;;;5.70;99.90;;;;;;4992416;28;20542;-78
2023/03/06 09:37:18;;;;;;;2.92;2.38;;;5.80;99.90;;;;;;5010500;28;20059;-77
2023/03/06 09:39:45;;;;;;;2.92;2.13;;;6.00;99.90;;;;;;5010338;28;20095;-78
2023/03/06 09:42:15;;;;;;;3.20;2.80;;;6.00;99.90;;;;;;5010609;28;20145;-78
2023/03/06 09:44:42;;;;;;;3.40;2.65;;;6.20;99.90;;;;;;4978052;28;20409;-77
2023/03/06 09:47:30;;;;;;;3.63;3.30;;;6.30;99.90;;;;;;4990866;28;20100;-78
2023/03/06 09:50:12;;;;;;;3.78;2.92;;;6.40;99.90;;;;;;5026803;28;20071;-78
2023/03/06 09:53:10;;;;;;;2.30;2.10;;;6.60;99.90;;;;;;5026404;28;20487;-78
2023/03/06 09:55:37;;;;;;;4.30;3.20;;;6.70;99.90;;;;;;5026294;28;20055;-78
2023/03/06 09:58:24;;;;;;;5.45;3.25;;;6.70;99.90;;;;;;5010256;28;20049;-78
2023/03/06 10:00:56;;;;;;;4.07;3.05;;;6.80;99.90;;;;;;4994432;28;20060;-78
2023/03/06 10:03:47;;;;;;;3.58;2.75;;;6.80;99.90;;;;;;5023107;28;20078;-77
2023/03/06 10:06:15;;;;;;;4.00;3.35;;;6.90;99.90;;;;;;4995283;28;20078;-77
2023/03/06 10:08:46;;;;;;;3.22;2.55;;;7.00;99.90;;;;;;5006023;28;20455;-77
2023/03/06 10:11:17;;;;;;;3.13;2.50;;;7.10;99.90;;;;;;4992518;28;20767;-77
2023/03/06 10:13:46;;;;;;;2.40;2.20;;;7.40;99.90;;;;;;4996111;28;20151;-77
2023/03/06 10:16:29;;;;;;;2.72;2.40;;;7.50;99.90;;;;;;5004566;28;20053;-77
2023/03/06 10:19:00;;;;;;;3.15;2.63;;;7.70;99.90;;;;;;5010501;28;20049;-77
2023/03/06 10:21:48;;;;;;;4.07;3.63;;;7.80;99.90;;;;;;4992980;28;20763;-78
2023/03/06 10:24:18;;;;;;;4.18;3.45;;;7.80;99.90;;;;;;5033326;28;20055;-77
2023/03/06 10:27:15;;;;;;;4.70;3.30;;;7.80;99.90;;;;;;5040481;28;20136;-77
2023/03/06 10:30:31;;;;;;;5.35;2.78;;;7.90;99.90;;;;;;4984574;28;20077;-78
2023/03/06 10:32:59;;;;;;;4.05;3.47;;;7.90;99.90;;;;;;5013251;28;20103;-77
2023/03/06 10:35:53;;;;;;;3.63;3.00;;;7.90;99.90;;;;;;5004265;28;20057;-77
2023/03/06 10:38:30;;;;;;;4.13;3.65;;;8.10;99.90;;;;;;5004728;28;20227;-77
2023/03/06 10:41:07;;;;;;;6.15;4.28;;;8.10;99.90;;;;;;5026445;28;20057;-77
2023/03/06 10:43:34;;;;;;;4.20;3.45;;;8.10;99.90;;;;;;5024733;28;20049;-77
2023/03/06 10:46:02;;;;;;;3.95;2.95;;;8.10;99.90;;;;;;5010097;28;20450;-77
2023/03/06 10:48:31;;;;;;;3.90;3.50;;;8.30;99.90;;;;;;4991227;28;20144;-77
2023/03/06 10:51:19;;;;;;;3.03;2.72;;;8.40;99.90;;;;;;5008774;28;20140;-78
2023/03/06 10:53:51;;;;;;;4.82;3.80;;;8.40;99.90;;;;;;5008668;28;20053;-78
2023/03/06 10:56:39;;;;;;;3.95;3.55;;;8.40;99.90;;;;;;5026367;28;20056;-77
2023/03/06 10:59:17;;;;;;;4.03;3.63;;;8.50;99.90;;;;;;5008590;28;20144;-77
2023/03/06 11:01:55;;;;;;;4.63;4.18;;;8.60;99.90;;;;;;5024873;28;20061;-78
2023/03/06 11:04:28;;;;;;;5.22;3.88;;;8.60;99.90;;;;;;5007901;28;20052;-78
2023/03/06 11:07:18;;;;;;;3.97;3.55;;;8.70;99.90;;;;;;5025139;28;20075;-78
2023/03/06 11:09:57;;;;;;;4.68;4.15;;;8.90;99.90;;;;;;5009244;28;20128;-77
2023/03/06 11:12:35;;;;;;;4.28;3.60;;;8.80;99.90;;;;;;5043012;28;20049;-78
2023/03/06 11:15:16;;;;;;;5.38;4.10;;;8.90;99.90;;;;;;5007150;28;20071;-79
2023/03/06 11:17:54;;;;;;;6.20;3.72;;;9.00;99.90;;;;;;5005420;28;20084;-77
2023/03/06 11:20:22;;;;;;;5.05;4.10;;;9.00;99.90;;;;;;5020541;28;20041;-77
2023/03/06 11:23:03;;;;;;;5.82;4.15;;;9.00;99.90;;;;;;5001640;28;20056;-78
2023/03/06 11:25:39;;;;;;;5.70;4.30;;;9.10;99.90;;;;;;4990046;28;20234;-78
2023/03/06 11:28:21;;;;;;;3.90;3.08;;;9.00;99.90;;;;;;5022814;28;20049;-78
2023/03/06 11:30:51;;;;;;;4.00;3.10;;;9.00;99.90;;;;;;5008833;28;20100;-77
2023/03/06 11:33:29;;;;;;;3.63;3.15;;;9.10;99.90;;;;;;5024424;28;20087;-78
2023/03/06 11:35:59;;;;;;;4.00;3.17;;;9.10;99.90;;;;;;5010312;28;20048;-77
2023/03/06 11:38:34;;;;;;;5.20;2.97;;;9.10;99.90;;;;;;4996405;28;20095;-78
2023/03/06 11:41:02;;;;;;;3.90;3.10;;;9.20;99.90;;;;;;5012626;28;20172;-77
2023/03/06 11:43:54;;;;;;;3.90;2.83;;;9.30;99.90;;;;;;4996173;28;20079;-76
2023/03/06 11:46:27;;;;;;;3.95;3.42;;;9.50;99.90;;;;;;5012882;28;20136;-77
2023/03/06 11:49:17;;;;;;;3.25;2.95;;;9.50;99.90;;;;;;4994771;28;20132;-77
2023/03/06 11:51:49;;;;;;;4.88;3.30;;;9.50;99.90;;;;;;5030723;28;20080;-77
2023/03/06 11:54:16;;;;;;;3.45;3.00;;;9.40;99.90;;;;;;4996333;28;20114;-77
2023/03/06 11:56:47;;;;;;;3.17;2.55;;;9.40;99.90;;;;;;4996413;28;20053;-77
2023/03/06 11:59:22;;;;;;;5.10;3.03;;;9.40;99.90;;;;;;5028130;28;20049;-77
2023/03/06 12:01:58;;;;;;;4.00;2.55;;;9.50;99.90;;;;;;5046627;28;20131;-77
2023/03/06 12:04:38;;;;;;;3.25;2.38;;;9.50;99.90;;;;;;5011587;28;20391;-78
2023/03/06 12:07:21;;;;;;;3.58;2.63;;;9.50;99.90;;;;;;5014641;28;20096;-77
2023/03/06 12:10:13;;;;;;;5.03;3.38;;;9.70;99.90;;;;;;5004474;28;20371;-77
2023/03/06 12:12:50;;;;;;;5.30;4.00;;;9.70;99.90;;;;;;5046594;28;20056;-77
2023/03/06 12:15:47;;;;;;;3.92;3.30;;;9.70;99.90;;;;;;5011744;28;20056;-77
2023/03/06 12:18:24;;;;;;;3.85;3.05;;;9.90;99.90;;;;;;5025473;28;20054;-78
2023/03/06 12:20:54;;;;;;;3.13;2.53;;;10.00;99.90;;;;;;4987385;28;20061;-78
2023/03/06 12:23:47;;;;;;;3.38;2.50;;;10.10;99.90;;;;;;5026244;28;20053;-78
2023/03/06 12:26:51;;;;;;;2.78;2.47;;;10.50;99.90;;;;;;4974468;28;20128;-77
2023/03/06 12:29:42;;;;;;;2.53;2.17;;;10.40;99.90;;;;;;4993085;28;20092;-78
2023/03/06 12:32:19;;;;;;;3.72;2.70;;;10.40;99.90;;;;;;5009300;28;20081;-78
2023/03/06 12:34:58;;;;;;;3.58;2.72;;;10.50;99.90;;;;;;5044202;28;20088;-78
2023/03/06 12:37:42;;;;;;;3.60;2.63;;;10.50;99.90;;;;;;5011614;28;20114;-78
2023/03/06 12:40:34;;;;;;;4.07;2.67;;;10.50;99.90;;;;;;5045556;28;20518;-78
2023/03/06 12:43:26;;;;;;;3.97;2.63;;;10.70;99.90;;;;;;5029818;28;20064;-78
2023/03/06 12:46:20;;;;;;;3.22;2.10;;;10.90;99.90;;;;;;5045733;28;20611;-78
2023/03/06 12:49:04;;;;;;;2.25;1.88;;;11.10;99.90;;;;;;4996941;28;20065;-78
2023/03/06 12:51:31;;;;;;;3.47;1.80;;;11.10;99.90;;;;;;4995525;28;20077;-78
2023/03/06 12:53:58;;;;;;;3.08;1.95;;;11.10;99.90;;;;;;5006200;28;20095;-78
2023/03/06 12:56:25;;;;;;;3.45;2.13;;;11.10;99.90;;;;;;4991383;28;20099;-78
2023/03/06 12:58:56;;;;;;;2.17;1.40;;;11.20;99.90;;;;;;5007756;28;20053;-78
2023/03/06 13:01:38;;;;;;;2.55;2.28;;;11.30;99.90;;;;;;5007595;28;20081;-78
2023/03/06 13:04:26;;;;;;;3.47;2.65;;;11.20;99.90;;;;;;5040821;28;20448;-78
2023/03/06 13:07:26;;;;;;;3.72;2.80;;;11.10;99.90;;;;;;5041864;28;20143;-77
2023/03/06 13:10:15;;;;;;;3.60;2.20;;;10.90;99.90;;;;;;5001843;28;20127;-77
2023/03/06 13:12:59;;;;;;;4.20;2.63;;;10.60;99.90;;;;;;5031515;28;20057;-75